Bernardo de Irigoyen, Argentina
Current Conditions -  °F | °C
As of 6:00 PM on Sunday 23 Nov 2014 (Local Time) from SAAR Reporting Station
Clear Clear  
Wind Chill: 29°   Ceiling: Unl
Heat Index: 29°   Visibility: 6mi
Dew Point: 14°   Wind: 16mph
Humidity: 40%   Direction: 360°N
Pressure: 29.71"   Gusts: NA
Location:  32.21°S, 61.14°W
Report Text: SAAR 232100Z 36014KT CAVOK 29/14 Q1006
Loading
Personal Weather Stations






























Interactive Weather Map New forecast layout! Learn more

10-Day Weather Forecast

Advertisements
Track Severe Weather on mobile